Time;durP1;ratioP1;P1;durP2;ratioP2;P2;SDS_P1;SDS_P2;PMS_P1;PMS_P2;Temp;Humidity;BMP_temperature;BMP_pressure;BME280_temperature;BME280_humidity;BME280_pressure;Samples;Min_cycle;Max_cycle;Signal;HPM_P1;HPM_P2
2022/12/09 00:01:39;;;;;;;19.15;9.00;;;;;;;-2.00;66.65;91654.25;2051850;69;20162;-75
2022/12/09 00:04:05;;;;;;;19.67;8.13;;;;;;;-1.83;66.21;91656.44;2052432;69;20143;-75
2022/12/09 00:06:32;;;;;;;18.75;8.75;;;;;;;-1.75;65.62;91657.13;2052156;70;20173;-77
2022/12/09 00:08:58;;;;;;;19.13;8.82;;;;;;;-1.77;66.37;91647.94;2051197;69;20146;-76
2022/12/09 00:11:24;;;;;;;19.67;8.95;;;;;;;-1.74;65.65;91649.56;2051155;70;20555;-77
2022/12/09 00:13:51;;;;;;;21.83;9.25;;;;;;;-1.69;65.29;91659.69;2051221;70;20161;-77
2022/12/09 00:16:19;;;;;;;18.17;8.40;;;;;;;-1.65;65.84;91652.50;2051002;70;20201;-76
2022/12/09 00:18:45;;;;;;;21.98;8.77;;;;;;;-1.71;65.48;91649.19;2051257;70;20181;-75
2022/12/09 00:21:19;;;;;;;21.15;10.07;;;;;;;-1.76;66.06;91647.38;2051027;70;20256;-76
2022/12/09 00:23:44;;;;;;;17.92;8.50;;;;;;;-1.67;66.42;91646.78;2051087;70;20147;-76
2022/12/09 00:26:11;;;;;;;20.80;9.57;;;;;;;-1.70;66.12;91642.38;2051339;69;20150;-77
2022/12/09 00:28:36;;;;;;;20.00;8.88;;;;;;;-1.70;65.85;91647.91;2051748;69;20322;-77
2022/12/09 00:31:04;;;;;;;19.10;8.82;;;;;;;-1.77;65.46;91617.59;2051518;69;20199;-76
2022/12/09 00:33:31;;;;;;;17.48;8.70;;;;;;;-1.59;65.62;91636.47;2051281;70;20582;-76
2022/12/09 00:36:07;;;;;;;16.23;8.15;;;;;;;-1.54;65.68;91630.00;2051293;70;20155;-76
2022/12/09 00:38:33;;;;;;;20.02;8.40;;;;;;;-1.49;66.02;91617.28;2051568;69;20158;-75
2022/12/09 00:40:58;;;;;;;18.13;8.38;;;;;;;-1.50;65.19;91617.84;2051312;70;20658;-77
2022/12/09 00:43:24;;;;;;;21.23;8.60;;;;;;;-1.49;65.24;91620.03;2051064;70;20150;-76
2022/12/09 00:45:49;;;;;;;16.90;8.50;;;;;;;-1.48;64.69;91613.22;2051172;69;20147;-76
2022/12/09 00:48:15;;;;;;;20.40;8.35;;;;;;;-1.50;65.66;91610.28;2051448;70;20559;-77
2022/12/09 00:50:44;;;;;;;16.92;7.85;;;;;;;-1.45;65.06;91603.09;2051439;70;20221;-77
2022/12/09 00:53:14;;;;;;;18.17;7.88;;;;;;;-1.57;65.70;91584.19;2050787;70;20193;-77
2022/12/09 00:55:39;;;;;;;16.13;7.28;;;;;;;-1.44;65.50;91588.72;2051317;70;20169;-77
2022/12/09 00:58:06;;;;;;;17.05;7.25;;;;;;;-1.70;66.48;91586.47;2051098;70;20552;-76
2022/12/09 01:00:31;;;;;;;14.60;7.22;;;;;;;-1.70;67.22;91589.22;2050604;70;20498;-76
2022/12/09 01:02:57;;;;;;;19.52;7.90;;;;;;;-1.52;66.15;91592.81;2051168;70;20583;-77
2022/12/09 01:05:23;;;;;;;15.23;7.57;;;;;;;-1.49;65.56;91600.72;2050553;70;20682;-75
2022/12/09 01:07:49;;;;;;;16.25;7.47;;;;;;;-1.44;65.49;91594.25;2051287;70;20162;-75
2022/12/09 01:10:15;;;;;;;17.67;7.90;;;;;;;-1.49;65.67;91589.69;2051088;70;20146;-75
2022/12/09 01:12:42;;;;;;;17.02;7.30;;;;;;;-1.47;65.81;91581.56;2051676;69;20190;-76
2022/12/09 01:15:09;;;;;;;16.10;6.55;;;;;;;-1.63;66.56;91589.19;2051582;70;20292;-77
2022/12/09 01:17:39;;;;;;;15.05;7.05;;;;;;;-1.47;66.05;91595.34;2051200;69;20176;-77
2022/12/09 01:20:07;;;;;;;17.90;7.05;;;;;;;-1.44;66.00;91599.03;2042361;70;20154;-76
2022/12/09 01:22:33;;;;;;;19.58;7.95;;;;;;;-1.63;67.78;91608.50;2051180;70;20211;-76
2022/12/09 01:24:59;;;;;;;17.23;7.78;;;;;;;-1.54;67.20;91601.66;2051251;70;20206;-76
2022/12/09 01:27:27;;;;;;;19.60;7.75;;;;;;;-1.42;66.45;91607.47;2051085;70;20150;-77
2022/12/09 01:29:53;;;;;;;16.85;7.22;;;;;;;-1.92;67.98;91621.88;2051089;70;20146;-77
2022/12/09 01:32:19;;;;;;;15.38;7.50;;;;;;;-1.56;67.46;91598.72;2050302;70;20213;-76
2022/12/09 01:34:45;;;;;;;16.13;8.15;;;;;;;-1.58;67.17;91606.84;2051144;70;20581;-76
2022/12/09 01:37:11;;;;;;;18.92;8.52;;;;;;;-1.59;66.68;91597.81;2051412;70;20146;-76
2022/12/09 01:39:36;;;;;;;14.75;7.40;;;;;;;-1.54;66.78;91582.34;2050832;70;20150;-76
2022/12/09 01:42:04;;;;;;;16.33;7.82;;;;;;;-1.52;66.81;91585.28;2051417;70;20158;-77
2022/12/09 01:44:32;;;;;;;14.88;7.45;;;;;;;-1.55;67.81;91572.59;2050841;70;20146;-77
2022/12/09 01:47:00;;;;;;;23.02;8.18;;;;;;;-1.46;66.48;91557.47;2050411;70;20201;-77
2022/12/09 01:49:41;;;;;;;19.70;8.20;;;;;;;-1.54;66.43;91563.03;2051017;70;20321;-76
2022/12/09 01:52:14;;;;;;;14.90;8.18;;;;;;;-1.42;66.64;91544.75;2051567;70;20135;-76
2022/12/09 01:54:44;;;;;;;12.05;6.32;;;;;;;-1.30;66.69;91534.72;2048550;69;20615;-77
2022/12/09 01:57:10;;;;;;;13.40;6.75;;;;;;;-1.52;67.00;91537.63;2051182;70;20266;-77
2022/12/09 01:59:37;;;;;;;12.80;6.78;;;;;;;-1.40;67.72;91531.09;2050535;70;20538;-77
2022/12/09 02:02:06;;;;;;;12.50;6.13;;;;;;;-1.29;67.32;91524.41;2047675;70;20146;-77
2022/12/09 02:04:38;;;;;;;10.63;5.82;;;;;;;-1.22;66.89;91515.34;2050567;70;20635;-77
2022/12/09 02:07:08;;;;;;;19.30;7.00;;;;;;;-1.59;67.87;91528.81;2050440;70;20151;-77
2022/12/09 02:09:34;;;;;;;17.92;9.10;;;;;;;-1.68;68.20;91536.97;2050472;70;20500;-77
2022/12/09 02:12:09;;;;;;;14.25;7.45;;;;;;;-1.78;69.63;91528.56;2050777;70;20149;-75
2022/12/09 02:14:50;;;;;;;15.07;7.85;;;;;;;-1.89;69.45;91532.47;2051313;70;20225;-75
2022/12/09 02:17:33;;;;;;;13.32;7.03;;;;;;;-1.57;69.03;91531.75;2050320;70;20224;-75
2022/12/09 02:20:07;;;;;;;12.60;6.93;;;;;;;-1.32;67.49;91531.06;2050984;70;20165;-75
2022/12/09 02:22:44;;;;;;;13.07;6.57;;;;;;;-1.24;67.10;91511.66;2047476;70;20488;-75
2022/12/09 02:25:25;;;;;;;12.88;6.55;;;;;;;-1.26;67.24;91511.50;2050472;70;20237;-75
2022/12/09 02:28:08;;;;;;;13.32;6.72;;;;;;;-1.39;67.19;91507.72;2051024;70;20160;-76
2022/12/09 02:30:49;;;;;;;15.88;7.18;;;;;;;-1.31;67.16;91497.34;2050805;70;20249;-76
2022/12/09 02:33:53;;;;;;;13.75;6.95;;;;;;;-1.25;67.07;91499.16;2050511;70;20245;-75
2022/12/09 02:36:24;;;;;;;15.40;6.80;;;;;;;-1.17;66.75;91500.56;2048125;70;20210;-76
2022/12/09 02:38:51;;;;;;;14.05;6.80;;;;;;;-1.30;67.36;91507.09;2050294;70;20529;-76
2022/12/09 02:41:25;;;;;;;18.50;7.78;;;;;;;-1.15;66.97;91497.22;2047828;70;20154;-76
2022/12/09 02:44:19;;;;;;;17.42;7.60;;;;;;;-1.07;67.09;91497.91;2051653;70;20547;-76
2022/12/09 02:46:45;;;;;;;14.73;7.50;;;;;;;-1.03;66.39;91504.50;2048052;70;20161;-76
2022/12/09 02:49:13;;;;;;;14.65;7.70;;;;;;;-1.05;66.29;91493.31;2051373;70;20158;-76
2022/12/09 02:51:43;;;;;;;14.82;7.20;;;;;;;-1.01;66.84;91506.69;2051401;70;20158;-76
2022/12/09 02:54:17;;;;;;;14.43;7.60;;;;;;;-1.36;66.74;91467.94;2051299;70;20166;-76
2022/12/09 02:56:55;;;;;;;17.35;8.52;;;;;;;-1.67;69.25;91495.03;2049422;70;20257;-74
2022/12/09 02:59:21;;;;;;;19.65;8.88;;;;;;;-1.27;68.41;91499.00;2057497;70;20154;-74
2022/12/09 03:01:59;;;;;;;19.38;8.43;;;;;;;-1.07;66.97;91484.81;2057284;70;20154;-73
2022/12/09 03:04:27;;;;;;;19.63;8.35;;;;;;;-1.11;68.25;91481.72;2054732;70;20134;-75
2022/12/09 03:06:54;;;;;;;16.65;8.02;;;;;;;-0.97;66.95;91479.41;2052082;69;20137;-75
2022/12/09 03:09:27;;;;;;;14.43;7.18;;;;;;;-0.92;67.10;91463.88;2051791;70;20210;-77
2022/12/09 03:11:58;;;;;;;15.93;7.28;;;;;;;-0.81;66.55;91463.44;2051053;70;20153;-77
2022/12/09 03:14:32;;;;;;;16.67;7.07;;;;;;;-0.83;66.87;91469.50;2051468;70;20162;-77
2022/12/09 03:17:14;;;;;;;20.80;7.30;;;;;;;-0.96;66.85;91461.56;2051419;70;20146;-76
2022/12/09 03:19:48;;;;;;;;;;;;;;;-0.82;67.22;91457.19;2051245;70;20174;-76
2022/12/09 03:22:16;;;;;;;16.63;6.68;;;;;;;-0.97;67.27;91456.56;2051063;69;20552;-76
2022/12/09 03:25:00;;;;;;;13.32;6.28;;;;;;;-0.82;67.21;91446.13;2051496;70;20142;-76
2022/12/09 03:27:33;;;;;;;13.82;6.50;;;;;;;-0.71;67.02;91442.13;2050825;70;20157;-76
2022/12/09 03:30:02;;;;;;;15.55;6.45;;;;;;;-0.65;67.26;91439.13;2051539;70;20188;-77
2022/12/09 03:32:30;;;;;;;14.98;7.00;;;;;;;-0.90;67.32;91442.69;2051609;69;20170;-77
2022/12/09 03:35:02;;;;;;;15.10;7.10;;;;;;;-0.72;67.22;91437.19;2051411;69;20222;-77
2022/12/09 03:37:29;;;;;;;15.50;6.95;;;;;;;-0.60;66.33;91424.31;2051350;69;20170;-77
2022/12/09 03:39:57;;;;;;;13.00;6.30;;;;;;;-0.57;66.05;91412.88;2050657;70;20563;-77
2022/12/09 03:42:30;;;;;;;12.05;5.80;;;;;;;-0.90;68.43;91426.13;2051256;69;20172;-77
2022/12/09 03:45:08;;;;;;;18.77;6.68;;;;;;;-0.66;66.67;91419.06;2051260;70;20154;-77
2022/12/09 03:47:35;;;;;;;15.40;6.00;;;;;;;-0.62;67.30;91422.13;2051298;70;20162;-77
2022/12/09 03:50:01;;;;;;;13.32;5.85;;;;;;;-0.59;66.86;91407.19;2051308;69;20146;-77
2022/12/09 03:52:35;;;;;;;12.13;5.32;;;;;;;-0.58;66.94;91399.63;2051119;70;20146;-77
2022/12/09 03:55:07;;;;;;;12.13;5.32;;;;;;;-0.82;66.64;91401.19;2051169;70;20243;-77
2022/12/09 03:57:38;;;;;;;13.35;5.78;;;;;;;-0.81;67.71;91397.13;2051239;70;20162;-77
2022/12/09 04:00:04;;;;;;;10.90;5.25;;;;;;;-0.69;67.11;91383.53;2050852;70;20175;-77
2022/12/09 04:02:38;;;;;;;8.60;4.43;;;;;;;-0.69;67.16;91372.47;2051427;69;20146;-77
2022/12/09 04:05:04;;;;;;;7.03;3.50;;;;;;;-0.63;66.78;91379.22;2051752;69;20177;-77
2022/12/09 04:07:30;;;;;;;11.02;4.50;;;;;;;-0.71;66.89;91378.56;2051590;70;20268;-77
2022/12/09 04:09:55;;;;;;;13.40;5.22;;;;;;;-0.70;67.58;91377.25;2051880;69;20157;-77
2022/12/09 04:12:21;;;;;;;11.32;5.00;;;;;;;-0.66;66.93;91369.28;2051610;69;20602;-77
2022/12/09 04:14:46;;;;;;;8.52;4.38;;;;;;;-0.62;67.51;91371.66;2051387;69;20154;-77
2022/12/09 04:17:13;;;;;;;7.85;4.25;;;;;;;-1.12;68.62;91369.06;2051175;70;20297;-77
2022/12/09 04:19:39;;;;;;;11.57;4.85;;;;;;;-0.80;67.84;91355.09;2050705;70;20626;-77
2022/12/09 04:22:06;;;;;;;11.82;4.80;;;;;;;-0.87;68.35;91346.88;2050612;70;20590;-78
2022/12/09 04:24:31;;;;;;;12.13;4.90;;;;;;;-0.73;67.88;91341.75;2051278;70;20163;-77
2022/12/09 04:26:57;;;;;;;12.35;5.30;;;;;;;-0.73;67.88;91342.50;2051373;70;20146;-77
2022/12/09 04:29:22;;;;;;;8.38;4.50;;;;;;;-0.65;67.74;91328.56;2050645;70;20622;-77
2022/12/09 04:31:48;;;;;;;12.43;5.30;;;;;;;-0.61;67.29;91337.91;2051283;70;20609;-77
2022/12/09 04:34:13;;;;;;;9.95;4.70;;;;;;;-0.62;67.43;91330.94;2051360;70;20643;-77
2022/12/09 04:36:39;;;;;;;8.65;3.90;;;;;;;-0.58;67.13;91331.25;2051644;70;20158;-77
2022/12/09 04:39:05;;;;;;;10.60;4.88;;;;;;;-0.52;66.78;91336.50;2051052;70;20150;-77
2022/12/09 04:41:31;;;;;;;9.73;4.63;;;;;;;-0.58;67.00;91331.25;2051667;70;20201;-77
2022/12/09 04:43:56;;;;;;;8.25;4.28;;;;;;;-0.51;66.78;91324.88;2051558;69;20197;-77
2022/12/09 04:46:22;;;;;;;11.07;4.07;;;;;;;-0.43;66.64;91305.44;2051183;70;20141;-77
2022/12/09 04:48:47;;;;;;;14.82;4.65;;;;;;;-0.38;66.17;91309.97;2051272;70;20138;-76
2022/12/09 04:51:15;;;;;;;9.88;4.38;;;;;;;-0.35;66.35;91302.56;2051281;69;20134;-76
2022/12/09 04:53:41;;;;;;;9.60;4.90;;;;;;;-0.34;66.48;91293.69;2051018;70;20225;-76
2022/12/09 04:56:11;;;;;;;9.23;4.53;;;;;;;-0.36;66.26;91295.59;2050699;70;20150;-76
2022/12/09 04:58:38;;;;;;;11.18;4.50;;;;;;;-0.51;66.47;91305.53;2051090;69;20605;-76
2022/12/09 05:01:13;;;;;;;9.10;4.25;;;;;;;-0.53;66.71;91296.34;2051400;70;20154;-76
2022/12/09 05:03:39;;;;;;;9.88;4.57;;;;;;;-0.52;67.31;91295.78;2051196;69;20135;-76
2022/12/09 05:06:07;;;;;;;8.18;4.30;;;;;;;-0.55;66.75;91296.94;2051613;69;20237;-76
2022/12/09 05:08:33;;;;;;;9.85;4.32;;;;;;;-0.43;66.94;91293.66;2051004;70;20249;-76
2022/12/09 05:10:59;;;;;;;10.45;4.95;;;;;;;-0.53;67.02;91277.72;2051067;70;20217;-75
2022/12/09 05:13:26;;;;;;;12.38;5.50;;;;;;;-0.44;67.50;91292.91;2051226;69;20233;-77
2022/12/09 05:15:53;;;;;;;8.70;4.80;;;;;;;-0.37;66.70;91288.56;2051214;70;20170;-77
2022/12/09 05:18:19;;;;;;;11.00;5.50;;;;;;;-0.32;66.37;91288.34;2051191;69;20729;-77
2022/12/09 05:20:44;;;;;;;12.13;5.70;;;;;;;-0.30;66.17;91282.94;2050072;69;20240;-76
2022/12/09 05:23:10;;;;;;;12.07;6.57;;;;;;;-0.22;66.31;91279.34;2049504;69;20150;-76
2022/12/09 05:25:35;;;;;;;11.05;5.15;;;;;;;-0.28;66.28;91274.78;2051126;69;20149;-75
2022/12/09 05:28:01;;;;;;;10.80;4.70;;;;;;;-0.59;68.38;91284.84;2050937;70;20145;-76
2022/12/09 05:30:27;;;;;;;10.30;4.70;;;;;;;-0.59;68.51;91287.59;2050720;69;20598;-76
2022/12/09 05:32:52;;;;;;;10.93;5.40;;;;;;;-0.42;67.90;91289.56;2051042;69;20542;-75
2022/12/09 05:35:18;;;;;;;9.95;4.88;;;;;;;-0.39;67.55;91289.16;2051300;69;20159;-75
2022/12/09 05:37:44;;;;;;;13.27;6.57;;;;;;;-0.88;68.73;91287.41;2050941;70;20599;-76
2022/12/09 05:40:10;;;;;;;10.68;5.45;;;;;;;-0.57;67.99;91282.94;2050728;70;20206;-76
2022/12/09 05:42:36;;;;;;;12.43;5.10;;;;;;;-0.56;67.44;91269.84;2051356;70;20182;-77
2022/12/09 05:45:02;;;;;;;10.70;5.05;;;;;;;-0.43;67.19;91279.81;2051137;70;20161;-77
2022/12/09 05:47:28;;;;;;;10.38;5.93;;;;;;;-0.36;66.68;91271.44;2051435;69;20181;-76
2022/12/09 05:49:55;;;;;;;12.20;4.95;;;;;;;-0.37;66.42;91283.03;2051369;69;20150;-76
2022/12/09 05:52:21;;;;;;;11.43;5.07;;;;;;;-0.51;67.76;91277.16;2050892;70;20204;-76
2022/12/09 05:54:46;;;;;;;12.05;5.80;;;;;;;-0.36;67.09;91265.91;2051122;70;20142;-77
2022/12/09 05:57:12;;;;;;;8.48;3.83;;;;;;;-0.28;66.70;91266.50;2050913;70;20610;-77
2022/12/09 05:59:37;;;;;;;9.88;5.03;;;;;;;-0.52;67.61;91267.41;2050927;70;20160;-76
2022/12/09 06:02:03;;;;;;;13.07;5.82;;;;;;;-0.25;66.59;91267.38;2050854;69;20154;-77
2022/12/09 06:04:28;;;;;;;9.95;5.75;;;;;;;-0.64;68.75;91269.97;2050986;70;20272;-76
2022/12/09 06:06:54;;;;;;;11.35;6.40;;;;;;;-0.31;67.13;91267.66;2050977;70;20231;-77
2022/12/09 06:09:20;;;;;;;12.80;6.15;;;;;;;-0.21;67.23;91269.75;2050605;70;20199;-77
2022/12/09 06:11:46;;;;;;;13.35;6.00;;;;;;;-0.23;67.25;91258.50;2051320;70;20504;-77
2022/12/09 06:14:11;;;;;;;10.90;6.00;;;;;;;-0.18;66.99;91263.03;2051090;70;20139;-77
2022/12/09 06:16:37;;;;;;;17.92;8.25;;;;;;;-0.14;66.95;91277.19;2051577;70;20169;-78
2022/12/09 06:19:04;;;;;;;21.92;9.13;;;;;;;-0.09;66.83;91262.34;2051419;70;20210;-78
2022/12/09 06:21:29;;;;;;;18.38;8.13;;;;;;;-0.04;66.57;91242.00;2051078;70;20388;-77
2022/12/09 06:23:55;;;;;;;17.48;8.32;;;;;;;-0.25;67.19;91250.78;2050932;70;20659;-77
2022/12/09 06:26:24;;;;;;;12.18;6.20;;;;;;;-0.39;68.23;91250.44;2051399;70;20208;-77
2022/12/09 06:28:51;;;;;;;18.48;8.50;;;;;;;-0.30;67.67;91249.75;2051112;70;20150;-78
2022/12/09 06:31:16;;;;;;;27.23;11.55;;;;;;;-0.16;67.51;91252.88;2051048;69;20197;-77
2022/12/09 06:37:42;;;;;;;20.42;8.90;;;;;;;-0.03;66.70;91244.19;2050934;70;20141;-77
2022/12/09 06:40:08;;;;;;;17.10;8.43;;;;;;;-0.01;67.15;91246.38;2051147;70;20189;-77
2022/12/09 06:42:33;;;;;;;22.60;10.02;;;;;;;-0.46;68.57;91240.22;2051298;70;20253;-77
2022/12/09 06:44:59;;;;;;;25.45;13.13;;;;;;;-0.10;67.65;91242.25;2051025;70;20761;-77
2022/12/09 06:47:24;;;;;;;24.17;10.02;;;;;;;-0.05;67.70;91229.47;2051083;70;20138;-77
2022/12/09 06:49:50;;;;;;;23.50;10.30;;;;;;;-0.08;67.70;91219.56;2051143;70;20150;-77
2022/12/09 06:52:16;;;;;;;21.33;10.02;;;;;;;0.03;67.13;91221.03;2050952;70;20566;-78
2022/12/09 06:54:41;;;;;;;28.05;13.55;;;;;;;0.08;67.27;91223.53;2051418;70;20154;-77
2022/12/09 06:57:07;;;;;;;29.13;14.38;;;;;;;0.16;67.13;91224.13;2051379;70;20193;-77
2022/12/09 06:59:33;;;;;;;24.73;11.85;;;;;;;0.20;66.64;91224.44;2051689;70;20197;-77
2022/12/09 07:01:58;;;;;;;17.77;8.52;;;;;;;0.28;66.03;91229.84;2051089;70;20150;-77
2022/12/09 07:04:24;;;;;;;21.88;9.52;;;;;;;0.36;65.45;91233.19;2051260;70;20146;-77
2022/12/09 07:06:49;;;;;;;30.65;15.95;;;;;;;0.10;67.03;91228.50;2051403;70;20249;-78
2022/12/09 07:09:20;;;;;;;31.40;14.85;;;;;;;0.27;66.45;91228.38;2051366;70;20142;-78
2022/12/09 07:11:46;;;;;;;27.08;13.70;;;;;;;0.33;66.67;91239.19;2051069;70;20158;-77
2022/12/09 07:14:13;;;;;;;28.33;12.68;;;;;;;0.33;66.28;91222.56;2051287;70;20190;-78
2022/12/09 07:16:39;;;;;;;34.47;16.20;;;;;;;-0.07;68.05;91235.56;2051548;70;20150;-77
2022/12/09 07:19:05;;;;;;;23.65;12.68;;;;;;;0.21;67.25;91242.50;2050932;70;20262;-78
2022/12/09 07:21:32;;;;;;;21.23;10.20;;;;;;;0.31;67.13;91241.78;2050975;70;20547;-78
2022/12/09 07:23:59;;;;;;;22.90;10.15;;;;;;;0.43;66.58;91234.38;2051090;70;20149;-78
2022/12/09 07:26:25;;;;;;;39.38;17.25;;;;;;;0.38;67.26;91235.41;2051125;70;20241;-78
2022/12/09 07:28:50;;;;;;;35.13;16.38;;;;;;;0.43;67.54;91239.91;2051485;70;20349;-78
2022/12/09 07:31:24;;;;;;;34.15;15.00;;;;;;;0.30;67.80;91229.25;2051945;70;20467;-78
2022/12/09 07:33:51;;;;;;;33.88;15.55;;;;;;;0.33;67.43;91217.03;2052029;69;20141;-78
2022/12/09 07:36:18;;;;;;;36.22;16.95;;;;;;;0.40;67.88;91211.34;2051837;70;20174;-77
2022/12/09 07:38:44;;;;;;;71.90;33.28;;;;;;;0.54;67.33;91211.66;2051223;70;20546;-78
2022/12/09 07:41:16;;;;;;;69.15;31.15;;;;;;;0.46;67.07;91175.81;2051765;70;20583;-78
2022/12/09 07:43:46;;;;;;;44.60;20.05;;;;;;;0.72;66.35;91196.34;2051839;70;20143;-78
2022/12/09 07:46:13;;;;;;;26.90;13.40;;;;;;;0.80;66.14;91203.78;2051875;70;20197;-78
2022/12/09 07:48:39;;;;;;;22.55;10.85;;;;;;;0.59;66.86;91198.81;2052334;69;20146;-77
2022/12/09 07:51:05;;;;;;;34.03;15.75;;;;;;;0.67;66.68;91202.19;2052439;70;20142;-78
2022/12/09 07:53:33;;;;;;;50.22;21.67;;;;;;;0.64;67.52;91195.03;2052673;70;20535;-77
2022/12/09 07:56:03;;;;;;;103.57;37.00;;;;;;;0.68;67.45;91181.47;2053276;70;20169;-77
2022/12/09 07:58:28;;;;;;;76.90;30.42;;;;;;;0.85;66.48;91180.59;2057375;70;20119;-79
2022/12/09 08:00:54;;;;;;;150.93;49.97;;;;;;;0.96;66.28;91172.44;2059418;70;20213;-77
2022/12/09 08:03:20;;;;;;;102.55;36.22;;;;;;;0.98;66.46;91174.59;2056651;70;20253;-78
2022/12/09 08:05:46;;;;;;;97.07;37.13;;;;;;;1.01;66.41;91184.53;2052341;70;20135;-78
2022/12/09 08:08:12;;;;;;;64.90;28.80;;;;;;;1.04;66.22;91182.59;2051636;69;20151;-77
2022/12/09 08:10:37;;;;;;;78.63;30.42;;;;;;;1.06;66.49;91182.75;2051731;70;20153;-78
2022/12/09 08:13:03;;;;;;;47.90;21.60;;;;;;;1.05;66.95;91184.78;2051800;69;20622;-78
2022/12/09 08:15:29;;;;;;;43.20;20.45;;;;;;;1.17;66.08;91174.56;2051841;70;20607;-77
2022/12/09 08:17:54;;;;;;;42.95;19.95;;;;;;;1.23;66.02;91177.75;2051436;70;20248;-78
2022/12/09 08:20:20;;;;;;;40.20;19.50;;;;;;;1.26;66.54;91171.03;2052001;70;20167;-77
2022/12/09 08:22:45;;;;;;;33.83;17.00;;;;;;;1.32;66.66;91170.00;2051516;70;20234;-77
2022/12/09 08:25:11;;;;;;;31.63;14.55;;;;;;;1.14;66.28;91186.09;2051456;70;20459;-77
2022/12/09 08:27:36;;;;;;;29.38;14.55;;;;;;;1.31;66.08;91194.22;2051507;70;20142;-78
2022/12/09 08:30:03;;;;;;;29.00;15.35;;;;;;;1.44;65.57;91179.16;2051375;70;20192;-80
2022/12/09 08:32:29;;;;;;;31.95;15.68;;;;;;;1.48;65.47;91174.63;2051507;70;20161;-79
2022/12/09 08:34:55;;;;;;;35.72;16.58;;;;;;;1.32;65.67;91170.00;2050850;70;20166;-79
2022/12/09 08:37:21;;;;;;;35.85;13.93;;;;;;;1.06;66.55;91161.31;2051225;70;20221;-79
2022/12/09 08:39:46;;;;;;;28.17;12.57;;;;;;;1.06;67.17;91171.69;2051272;70;20217;-76
2022/12/09 08:42:12;;;;;;;27.52;12.70;;;;;;;1.37;66.42;91183.53;2051202;70;20239;-75
2022/12/09 08:44:38;;;;;;;25.17;12.45;;;;;;;1.43;65.96;91186.03;2051286;70;20141;-75
2022/12/09 08:47:04;;;;;;;21.33;10.98;;;;;;;1.48;65.46;91174.63;2051278;70;20229;-75
2022/12/09 08:49:30;;;;;;;20.45;10.98;;;;;;;1.59;65.07;91180.84;2051426;69;20168;-75
2022/12/09 08:51:56;;;;;;;24.40;11.55;;;;;;;1.43;65.23;91183.25;2051569;69;20150;-76
2022/12/09 08:54:22;;;;;;;23.40;10.10;;;;;;;1.12;65.92;91177.63;2051554;70;20602;-76
2022/12/09 08:56:50;;;;;;;19.95;11.25;;;;;;;1.51;65.31;91167.16;2051637;69;20234;-76
2022/12/09 08:59:17;;;;;;;28.33;15.18;;;;;;;1.52;65.02;91168.63;2051630;69;20173;-76
2022/12/09 09:01:43;;;;;;;51.30;24.85;;;;;;;1.69;64.52;91162.13;2051587;69;20319;-76
2022/12/09 09:04:11;;;;;;;39.03;21.17;;;;;;;1.83;64.46;91163.06;2051042;70;20150;-77
2022/12/09 09:06:39;;;;;;;64.00;31.52;;;;;;;1.66;65.20;91157.78;2051658;69;20182;-77
2022/12/09 09:09:06;;;;;;;36.90;18.77;;;;;;;1.50;65.22;91160.16;2051556;69;20152;-77
2022/12/09 09:11:33;;;;;;;43.45;22.33;;;;;;;1.82;64.49;91172.00;2051498;69;20174;-77
2022/12/09 09:13:58;;;;;;;57.97;27.63;;;;;;;1.93;64.48;91166.53;2051496;69;20135;-76
2022/12/09 09:16:25;;;;;;;64.18;29.83;;;;;;;2.01;64.39;91175.38;2051650;70;20201;-76
2022/12/09 09:18:52;;;;;;;55.17;29.38;;;;;;;2.08;64.38;91184.16;2051624;70;20241;-76
2022/12/09 09:21:21;;;;;;;59.60;31.35;;;;;;;2.09;64.28;91183.53;2051573;69;20186;-76
2022/12/09 09:23:48;;;;;;;57.63;30.77;;;;;;;2.10;64.12;91179.44;2051564;70;20253;-77
2022/12/09 09:26:17;;;;;;;63.40;32.20;;;;;;;2.12;64.17;91179.59;2051463;70;20160;-76
2022/12/09 09:28:43;;;;;;;65.63;35.00;;;;;;;2.18;64.25;91171.66;2051617;69;20189;-77
2022/12/09 09:31:11;;;;;;;65.78;35.15;;;;;;;1.99;64.57;91161.38;2051224;70;20234;-77
2022/12/09 09:33:36;;;;;;;62.03;30.60;;;;;;;2.17;64.63;91163.94;2051656;69;20139;-77
2022/12/09 09:36:04;;;;;;;55.88;30.42;;;;;;;2.22;64.38;91163.59;2051559;69;20201;-78
2022/12/09 09:38:33;;;;;;;52.10;27.95;;;;;;;2.20;64.36;91151.63;2050953;70;20162;-76
2022/12/09 09:41:00;;;;;;;53.08;27.08;;;;;;;2.33;64.10;91153.88;2051469;69;20150;-76
2022/12/09 09:43:36;;;;;;;52.53;26.40;;;;;;;2.25;63.91;91150.59;2051525;70;20165;-76
2022/12/09 09:46:04;;;;;;;53.55;28.23;;;;;;;2.09;65.28;91139.13;2051855;69;20276;-77
2022/12/09 09:48:34;;;;;;;45.90;21.77;;;;;;;2.28;64.81;91141.03;2051628;69;20537;-76
2022/12/09 09:51:12;;;;;;;41.63;24.05;;;;;;;2.28;64.74;91127.16;2051129;69;20154;-76
2022/12/09 09:53:38;;;;;;;46.70;23.50;;;;;;;2.34;65.03;91127.56;2051182;70;20157;-76
2022/12/09 09:56:09;;;;;;;30.38;17.20;;;;;;;2.46;64.79;91122.06;2051622;70;20162;-76
2022/12/09 09:58:43;;;;;;;38.53;20.50;;;;;;;2.36;65.24;91118.63;2051455;69;20552;-76
2022/12/09 10:01:14;;;;;;;51.33;23.85;;;;;;;2.45;64.56;91117.84;2051406;70;20143;-76
2022/12/09 10:03:43;;;;;;;42.92;21.88;;;;;;;2.32;65.61;91115.59;2051505;70;20241;-75
2022/12/09 10:06:16;;;;;;;35.25;19.30;;;;;;;2.52;65.49;91105.78;2051477;70;20531;-76
2022/12/09 10:08:57;;;;;;;35.97;19.17;;;;;;;2.52;65.48;91103.00;2051403;70;20519;-76
2022/12/09 10:11:47;;;;;;;42.17;20.52;;;;;;;2.59;65.40;91102.06;2051547;70;20245;-74
2022/12/09 10:14:21;;;;;;;29.73;16.33;;;;;;;2.37;65.38;91106.19;2051637;69;20153;-75
2022/12/09 10:16:57;;;;;;;34.97;18.92;;;;;;;2.31;65.80;91094.72;2051475;69;20190;-74
2022/12/09 10:19:35;;;;;;;37.65;18.05;;;;;;;2.54;65.06;91095.53;2051185;70;20253;-74
2022/12/09 10:22:16;;;;;;;37.42;18.63;;;;;;;2.67;64.53;91090.75;2050690;70;20293;-75
2022/12/09 10:24:50;;;;;;;38.15;18.27;;;;;;;2.73;64.28;91075.19;2050895;70;20277;-75
2022/12/09 10:27:38;;;;;;;37.10;17.75;;;;;;;2.69;64.36;91082.53;2050764;70;20180;-76
2022/12/09 10:30:09;;;;;;;33.78;17.98;;;;;;;2.72;64.69;91078.56;2050527;70;20154;-75
2022/12/09 10:32:36;;;;;;;37.70;18.05;;;;;;;2.79;64.67;91070.03;2050703;70;20158;-75
2022/12/09 10:35:12;;;;;;;32.42;17.63;;;;;;;2.87;64.50;91064.22;2049931;70;20147;-75
2022/12/09 10:37:37;;;;;;;37.50;16.98;;;;;;;2.91;64.61;91063.75;2049742;70;20205;-75
2022/12/09 10:40:09;;;;;;;32.83;15.75;;;;;;;2.67;65.03;91052.59;2050702;70;20233;-75
2022/12/09 10:45:53;;;;;;;28.25;16.17;;;;;;;2.77;64.88;91036.53;2049771;70;20158;-75
2022/12/09 10:48:30;;;;;;;31.83;16.15;;;;;;;3.00;64.48;91038.63;2048443;70;20158;-75
2022/12/09 10:51:02;;;;;;;31.48;16.25;;;;;;;3.05;64.74;91043.09;2049328;70;20159;-76
2022/12/09 10:53:28;;;;;;;38.17;18.00;;;;;;;3.09;64.92;91039.13;2049747;69;20173;-77
2022/12/09 10:55:56;;;;;;;31.77;16.98;;;;;;;3.11;64.97;91042.03;2049378;70;20685;-77
2022/12/09 10:58:29;;;;;;;28.75;15.50;;;;;;;3.13;64.89;91040.09;2049316;70;20170;-76
2022/12/09 11:01:06;;;;;;;30.90;15.88;;;;;;;3.19;64.49;91029.34;2049043;70;20204;-76
2022/12/09 11:03:36;;;;;;;38.30;18.23;;;;;;;3.19;64.09;91018.22;2050807;70;20176;-75
2022/12/09 11:06:13;;;;;;;47.13;21.13;;;;;;;3.23;63.35;91020.50;2051408;70;20613;-75
2022/12/09 11:08:40;;;;;;;34.17;19.30;;;;;;;3.35;62.79;91014.97;2051239;70;20587;-76
2022/12/09 11:11:06;;;;;;;47.20;22.08;;;;;;;3.44;62.89;91003.00;2051303;70;20165;-76
2022/12/09 11:13:40;;;;;;;43.08;20.58;;;;;;;3.43;62.32;90993.16;2051782;69;20139;-76
2022/12/09 11:16:06;;;;;;;47.83;23.23;;;;;;;3.35;62.83;90987.16;2052015;70;20174;-75
2022/12/09 11:18:47;;;;;;;47.63;23.40;;;;;;;3.09;64.36;90989.09;2051594;70;20598;-74
2022/12/09 11:21:35;;;;;;;43.67;23.30;;;;;;;3.47;63.63;90996.19;2048301;70;20155;-72
2022/12/09 11:24:01;;;;;;;48.08;23.08;;;;;;;3.54;63.42;90982.03;2048743;70;20586;-76
2022/12/09 11:26:37;;;;;;;31.77;13.07;;;;;;;3.48;60.64;90972.59;2048231;70;20177;-74
2022/12/09 11:29:13;;;;;;;19.23;8.68;;;;;;;3.49;57.69;90965.72;2051553;70;20150;-74
2022/12/09 11:31:40;;;;;;;51.95;19.65;;;;;;;3.60;58.67;90969.81;2051079;70;20154;-75
2022/12/09 11:34:24;;;;;;;39.47;19.75;;;;;;;3.03;63.69;90973.50;2051311;70;20583;-75
2022/12/09 11:36:56;;;;;;;43.25;19.95;;;;;;;3.32;63.94;90966.81;2051300;70;20632;-76
2022/12/09 11:39:26;;;;;;;34.92;18.20;;;;;;;3.54;63.27;90972.97;2051952;69;20251;-75
2022/12/09 11:42:12;;;;;;;35.15;17.48;;;;;;;3.38;62.81;90969.25;2051181;70;20245;-76